sensor_id;sensor_type;location;lat;lon;timestamp;temperature;humidity
4556;DHT22;2290;48.674;9.018;2022-11-14T00:00:29;6.00;99.90
4556;DHT22;2290;48.674;9.018;2022-11-14T00:02:59;6.00;99.90
4556;DHT22;2290;48.674;9.018;2022-11-14T00:05:25;6.00;99.90
4556;DHT22;2290;48.674;9.018;2022-11-14T00:07:51;6.10;99.90
4556;DHT22;2290;48.674;9.018;2022-11-14T00:10:16;6.10;99.90
4556;DHT22;2290;48.674;9.018;2022-11-14T00:12:42;6.10;99.90
4556;DHT22;2290;48.674;9.018;2022-11-14T00:15:09;6.10;99.90
4556;DHT22;2290;48.674;9.018;2022-11-14T00:17:34;6.10;99.90
4556;DHT22;2290;48.674;9.018;2022-11-14T00:20:00;6.10;99.90
4556;DHT22;2290;48.674;9.018;2022-11-14T00:22:26;6.20;99.90
4556;DHT22;2290;48.674;9.018;2022-11-14T00:24:51;6.20;99.90
4556;DHT22;2290;48.674;9.018;2022-11-14T00:27:17;6.20;99.90
4556;DHT22;2290;48.674;9.018;2022-11-14T00:29:43;6.20;99.90
4556;DHT22;2290;48.674;9.018;2022-11-14T00:32:08;6.10;99.90
4556;DHT22;2290;48.674;9.018;2022-11-14T00:34:34;6.10;99.90
4556;DHT22;2290;48.674;9.018;2022-11-14T00:37:00;6.10;99.90
4556;DHT22;2290;48.674;9.018;2022-11-14T00:39:25;6.00;99.90
4556;DHT22;2290;48.674;9.018;2022-11-14T00:41:51;6.00;99.90
4556;DHT22;2290;48.674;9.018;2022-11-14T00:44:16;6.00;99.90
4556;DHT22;2290;48.674;9.018;2022-11-14T00:46:42;6.00;99.90
4556;DHT22;2290;48.674;9.018;2022-11-14T00:49:09;5.90;99.90
4556;DHT22;2290;48.674;9.018;2022-11-14T00:51:35;5.90;99.90
4556;DHT22;2290;48.674;9.018;2022-11-14T00:54:00;5.90;99.90
4556;DHT22;2290;48.674;9.018;2022-11-14T00:56:26;5.90;99.90
4556;DHT22;2290;48.674;9.018;2022-11-14T00:58:51;5.90;99.90
4556;DHT22;2290;48.674;9.018;2022-11-14T01:01:17;5.90;99.90
4556;DHT22;2290;48.674;9.018;2022-11-14T01:03:46;6.10;99.90
4556;DHT22;2290;48.674;9.018;2022-11-14T01:06:12;5.90;99.90
4556;DHT22;2290;48.674;9.018;2022-11-14T01:08:40;6.00;99.90
4556;DHT22;2290;48.674;9.018;2022-11-14T01:11:10;5.80;99.90
4556;DHT22;2290;48.674;9.018;2022-11-14T01:13:36;5.90;99.90
4556;DHT22;2290;48.674;9.018;2022-11-14T01:16:02;5.90;99.90
4556;DHT22;2290;48.674;9.018;2022-11-14T01:18:28;5.90;99.90
4556;DHT22;2290;48.674;9.018;2022-11-14T01:20:53;5.90;99.90
4556;DHT22;2290;48.674;9.018;2022-11-14T01:23:19;5.90;99.90
4556;DHT22;2290;48.674;9.018;2022-11-14T01:25:44;5.80;99.90
4556;DHT22;2290;48.674;9.018;2022-11-14T01:30:45;5.40;99.90
4556;DHT22;2290;48.674;9.018;2022-11-14T01:38:22;5.40;99.90
4556;DHT22;2290;48.674;9.018;2022-11-14T01:40:47;5.40;99.90
4556;DHT22;2290;48.674;9.018;2022-11-14T01:51:27;5.50;99.90
4556;DHT22;2290;48.674;9.018;2022-11-14T01:53:58;5.70;99.90
4556;DHT22;2290;48.674;9.018;2022-11-14T01:56:32;5.60;99.90
4556;DHT22;2290;48.674;9.018;2022-11-14T01:59:02;5.60;99.90
4556;DHT22;2290;48.674;9.018;2022-11-14T02:01:33;5.60;99.90
4556;DHT22;2290;48.674;9.018;2022-11-14T02:03:59;5.70;99.90
4556;DHT22;2290;48.674;9.018;2022-11-14T02:06:28;5.60;99.90
4556;DHT22;2290;48.674;9.018;2022-11-14T02:08:55;5.60;99.90
4556;DHT22;2290;48.674;9.018;2022-11-14T02:11:22;5.60;99.90
4556;DHT22;2290;48.674;9.018;2022-11-14T02:13:48;5.70;99.90
4556;DHT22;2290;48.674;9.018;2022-11-14T02:16:14;5.60;99.90
4556;DHT22;2290;48.674;9.018;2022-11-14T02:18:39;5.70;99.90
4556;DHT22;2290;48.674;9.018;2022-11-14T02:21:05;5.70;99.90
4556;DHT22;2290;48.674;9.018;2022-11-14T02:23:31;5.70;99.90
4556;DHT22;2290;48.674;9.018;2022-11-14T02:25:58;5.70;99.90
4556;DHT22;2290;48.674;9.018;2022-11-14T02:28:25;5.70;99.90
4556;DHT22;2290;48.674;9.018;2022-11-14T02:30:50;5.70;99.90
4556;DHT22;2290;48.674;9.018;2022-11-14T02:33:16;5.70;99.90
4556;DHT22;2290;48.674;9.018;2022-11-14T02:35:42;5.70;99.90
4556;DHT22;2290;48.674;9.018;2022-11-14T02:38:08;5.70;99.90
4556;DHT22;2290;48.674;9.018;2022-11-14T02:40:33;5.70;99.90
4556;DHT22;2290;48.674;9.018;2022-11-14T02:42:59;5.70;99.90
4556;DHT22;2290;48.674;9.018;2022-11-14T02:45:25;5.70;99.90
4556;DHT22;2290;48.674;9.018;2022-11-14T02:47:51;5.70;99.90
4556;DHT22;2290;48.674;9.018;2022-11-14T02:50:16;5.70;99.90
4556;DHT22;2290;48.674;9.018;2022-11-14T02:52:42;5.70;99.90
4556;DHT22;2290;48.674;9.018;2022-11-14T02:55:08;5.70;99.90
4556;DHT22;2290;48.674;9.018;2022-11-14T02:57:35;5.70;99.90
4556;DHT22;2290;48.674;9.018;2022-11-14T03:00:01;5.60;99.90
4556;DHT22;2290;48.674;9.018;2022-11-14T03:02:26;5.60;99.90
4556;DHT22;2290;48.674;9.018;2022-11-14T03:04:52;5.60;99.90
4556;DHT22;2290;48.674;9.018;2022-11-14T03:07:18;5.60;99.90
4556;DHT22;2290;48.674;9.018;2022-11-14T03:09:43;5.60;99.90
4556;DHT22;2290;48.674;9.018;2022-11-14T03:12:09;5.60;99.90
4556;DHT22;2290;48.674;9.018;2022-11-14T03:14:34;5.50;99.90
4556;DHT22;2290;48.674;9.018;2022-11-14T03:17:00;5.50;99.90
4556;DHT22;2290;48.674;9.018;2022-11-14T03:19:26;5.80;99.90
4556;DHT22;2290;48.674;9.018;2022-11-14T03:21:51;5.50;99.90
4556;DHT22;2290;48.674;9.018;2022-11-14T03:24:17;5.50;99.90
4556;DHT22;2290;48.674;9.018;2022-11-14T03:26:43;5.40;99.90
4556;DHT22;2290;48.674;9.018;2022-11-14T03:29:08;5.70;99.90
4556;DHT22;2290;48.674;9.018;2022-11-14T03:31:34;5.60;99.90
4556;DHT22;2290;48.674;9.018;2022-11-14T03:34:00;5.50;99.90
4556;DHT22;2290;48.674;9.018;2022-11-14T03:36:25;5.40;99.90
4556;DHT22;2290;48.674;9.018;2022-11-14T03:38:51;5.40;99.90
4556;DHT22;2290;48.674;9.018;2022-11-14T03:41:16;5.40;99.90
4556;DHT22;2290;48.674;9.018;2022-11-14T03:43:42;5.40;99.90
4556;DHT22;2290;48.674;9.018;2022-11-14T03:46:07;5.40;99.90
4556;DHT22;2290;48.674;9.018;2022-11-14T03:48:33;5.40;99.90
4556;DHT22;2290;48.674;9.018;2022-11-14T03:50:59;5.40;99.90
4556;DHT22;2290;48.674;9.018;2022-11-14T03:53:25;5.40;99.90
4556;DHT22;2290;48.674;9.018;2022-11-14T03:55:52;5.40;99.90
4556;DHT22;2290;48.674;9.018;2022-11-14T03:58:19;5.50;99.90
4556;DHT22;2290;48.674;9.018;2022-11-14T04:00:45;5.40;99.90
4556;DHT22;2290;48.674;9.018;2022-11-14T04:03:10;5.40;99.90
4556;DHT22;2290;48.674;9.018;2022-11-14T04:05:37;5.40;99.90
4556;DHT22;2290;48.674;9.018;2022-11-14T04:08:04;5.40;99.90
4556;DHT22;2290;48.674;9.018;2022-11-14T04:10:30;5.60;99.90
4556;DHT22;2290;48.674;9.018;2022-11-14T04:12:55;5.40;99.90
4556;DHT22;2290;48.674;9.018;2022-11-14T04:15:21;6.40;99.90
4556;DHT22;2290;48.674;9.018;2022-11-14T04:17:46;5.40;99.90
4556;DHT22;2290;48.674;9.018;2022-11-14T04:20:13;5.40;99.90
4556;DHT22;2290;48.674;9.018;2022-11-14T04:22:39;5.40;99.90
4556;DHT22;2290;48.674;9.018;2022-11-14T04:25:06;5.40;99.90
4556;DHT22;2290;48.674;9.018;2022-11-14T04:27:32;5.40;99.90
4556;DHT22;2290;48.674;9.018;2022-11-14T04:29:58;5.40;99.90
4556;DHT22;2290;48.674;9.018;2022-11-14T04:32:24;5.40;99.90
4556;DHT22;2290;48.674;9.018;2022-11-14T04:34:50;5.40;99.90
4556;DHT22;2290;48.674;9.018;2022-11-14T04:37:15;5.40;99.90
4556;DHT22;2290;48.674;9.018;2022-11-14T04:39:41;5.30;99.90
4556;DHT22;2290;48.674;9.018;2022-11-14T04:42:06;5.30;99.90
4556;DHT22;2290;48.674;9.018;2022-11-14T04:44:32;5.20;99.90
4556;DHT22;2290;48.674;9.018;2022-11-14T04:46:57;5.20;99.90
4556;DHT22;2290;48.674;9.018;2022-11-14T04:49:23;5.10;99.90
4556;DHT22;2290;48.674;9.018;2022-11-14T04:51:49;5.20;99.90
4556;DHT22;2290;48.674;9.018;2022-11-14T04:54:14;5.10;99.90
4556;DHT22;2290;48.674;9.018;2022-11-14T04:56:40;5.10;99.90
4556;DHT22;2290;48.674;9.018;2022-11-14T04:59:05;5.10;99.90
4556;DHT22;2290;48.674;9.018;2022-11-14T05:01:31;4.90;99.90
4556;DHT22;2290;48.674;9.018;2022-11-14T05:03:57;4.90;99.90
4556;DHT22;2290;48.674;9.018;2022-11-14T05:06:22;5.00;99.90
4556;DHT22;2290;48.674;9.018;2022-11-14T05:11:23;4.80;99.90
4556;DHT22;2290;48.674;9.018;2022-11-14T05:13:49;4.90;99.90
4556;DHT22;2290;48.674;9.018;2022-11-14T05:16:14;4.70;99.90
4556;DHT22;2290;48.674;9.018;2022-11-14T05:18:40;4.70;99.90
4556;DHT22;2290;48.674;9.018;2022-11-14T05:21:06;4.60;99.90
4556;DHT22;2290;48.674;9.018;2022-11-14T05:39:04;4.70;99.90
4556;DHT22;2290;48.674;9.018;2022-11-14T05:41:29;4.70;99.90
4556;DHT22;2290;48.674;9.018;2022-11-14T05:43:55;4.60;99.90
4556;DHT22;2290;48.674;9.018;2022-11-14T05:46:20;4.60;99.90
4556;DHT22;2290;48.674;9.018;2022-11-14T05:48:46;4.60;99.90
4556;DHT22;2290;48.674;9.018;2022-11-14T05:51:13;4.60;99.90
4556;DHT22;2290;48.674;9.018;2022-11-14T05:56:14;4.70;99.90
4556;DHT22;2290;48.674;9.018;2022-11-14T05:58:40;4.80;99.90
4556;DHT22;2290;48.674;9.018;2022-11-14T06:01:12;4.80;99.90
4556;DHT22;2290;48.674;9.018;2022-11-14T06:03:43;4.90;99.90
4556;DHT22;2290;48.674;9.018;2022-11-14T06:06:10;5.00;99.90
4556;DHT22;2290;48.674;9.018;2022-11-14T06:08:37;5.00;99.90
4556;DHT22;2290;48.674;9.018;2022-11-14T06:13:45;5.00;99.90
4556;DHT22;2290;48.674;9.018;2022-11-14T06:16:17;5.00;99.90
4556;DHT22;2290;48.674;9.018;2022-11-14T06:18:45;5.00;99.90
4556;DHT22;2290;48.674;9.018;2022-11-14T06:21:13;5.90;99.90
4556;DHT22;2290;48.674;9.018;2022-11-14T06:23:39;5.20;99.90
4556;DHT22;2290;48.674;9.018;2022-11-14T06:26:07;5.20;99.90
4556;DHT22;2290;48.674;9.018;2022-11-14T06:28:34;5.20;99.90
4556;DHT22;2290;48.674;9.018;2022-11-14T06:31:01;5.20;99.90
4556;DHT22;2290;48.674;9.018;2022-11-14T06:33:27;5.20;99.90
4556;DHT22;2290;48.674;9.018;2022-11-14T06:43:45;5.30;99.90
4556;DHT22;2290;48.674;9.018;2022-11-14T06:46:13;5.30;99.90
4556;DHT22;2290;48.674;9.018;2022-11-14T06:48:39;5.50;99.90
4556;DHT22;2290;48.674;9.018;2022-11-14T06:51:05;5.60;99.90
4556;DHT22;2290;48.674;9.018;2022-11-14T06:53:33;5.70;99.90
4556;DHT22;2290;48.674;9.018;2022-11-14T06:58:36;5.70;99.90
4556;DHT22;2290;48.674;9.018;2022-11-14T07:01:07;5.70;99.90
4556;DHT22;2290;48.674;9.018;2022-11-14T07:03:53;5.70;99.90
4556;DHT22;2290;48.674;9.018;2022-11-14T07:06:59;6.30;99.90
4556;DHT22;2290;48.674;9.018;2022-11-14T07:12:52;6.20;99.90
4556;DHT22;2290;48.674;9.018;2022-11-14T07:15:17;6.50;99.90
4556;DHT22;2290;48.674;9.018;2022-11-14T07:17:46;6.30;99.90
4556;DHT22;2290;48.674;9.018;2022-11-14T07:30:34;6.10;99.90
4556;DHT22;2290;48.674;9.018;2022-11-14T07:33:00;7.50;99.90
4556;DHT22;2290;48.674;9.018;2022-11-14T07:35:26;6.10;99.90
4556;DHT22;2290;48.674;9.018;2022-11-14T07:37:52;6.10;99.90
4556;DHT22;2290;48.674;9.018;2022-11-14T07:40:17;6.20;99.90
4556;DHT22;2290;48.674;9.018;2022-11-14T07:42:43;6.20;99.90
4556;DHT22;2290;48.674;9.018;2022-11-14T07:45:09;6.20;99.90
4556;DHT22;2290;48.674;9.018;2022-11-14T07:47:35;6.30;99.90
4556;DHT22;2290;48.674;9.018;2022-11-14T07:50:02;6.40;99.90
4556;DHT22;2290;48.674;9.018;2022-11-14T07:52:27;6.40;99.90
4556;DHT22;2290;48.674;9.018;2022-11-14T07:54:55;6.40;99.90
4556;DHT22;2290;48.674;9.018;2022-11-14T07:57:21;6.50;99.90
4556;DHT22;2290;48.674;9.018;2022-11-14T07:59:46;6.50;99.90
4556;DHT22;2290;48.674;9.018;2022-11-14T08:02:13;6.60;99.90
4556;DHT22;2290;48.674;9.018;2022-11-14T08:04:40;6.80;99.90
4556;DHT22;2290;48.674;9.018;2022-11-14T08:07:06;6.80;99.90
4556;DHT22;2290;48.674;9.018;2022-11-14T08:09:32;6.80;99.90
4556;DHT22;2290;48.674;9.018;2022-11-14T08:11:57;6.90;99.90
4556;DHT22;2290;48.674;9.018;2022-11-14T08:14:23;6.90;99.90
4556;DHT22;2290;48.674;9.018;2022-11-14T08:16:49;7.10;99.90
4556;DHT22;2290;48.674;9.018;2022-11-14T08:19:14;7.10;99.90
4556;DHT22;2290;48.674;9.018;2022-11-14T08:21:41;7.10;99.90
4556;DHT22;2290;48.674;9.018;2022-11-14T08:24:07;7.10;99.90
4556;DHT22;2290;48.674;9.018;2022-11-14T08:26:33;7.20;99.90
4556;DHT22;2290;48.674;9.018;2022-11-14T08:29:02;7.30;99.90
4556;DHT22;2290;48.674;9.018;2022-11-14T08:31:27;7.40;99.90
4556;DHT22;2290;48.674;9.018;2022-11-14T08:33:53;7.50;99.90
4556;DHT22;2290;48.674;9.018;2022-11-14T08:36:18;7.60;99.90
4556;DHT22;2290;48.674;9.018;2022-11-14T08:38:44;7.70;99.90
4556;DHT22;2290;48.674;9.018;2022-11-14T08:41:10;7.80;99.90
4556;DHT22;2290;48.674;9.018;2022-11-14T08:53:48;8.10;99.90
4556;DHT22;2290;48.674;9.018;2022-11-14T08:56:13;8.90;99.90
4556;DHT22;2290;48.674;9.018;2022-11-14T08:58:39;10.00;99.90
4556;DHT22;2290;48.674;9.018;2022-11-14T09:01:06;8.30;99.90
4556;DHT22;2290;48.674;9.018;2022-11-14T09:03:32;8.50;99.90
4556;DHT22;2290;48.674;9.018;2022-11-14T09:05:58;8.40;99.90
4556;DHT22;2290;48.674;9.018;2022-11-14T09:08:24;8.30;99.90
4556;DHT22;2290;48.674;9.018;2022-11-14T09:10:50;8.30;99.90
4556;DHT22;2290;48.674;9.018;2022-11-14T09:13:16;8.40;99.90
4556;DHT22;2290;48.674;9.018;2022-11-14T09:15:42;8.40;99.90
4556;DHT22;2290;48.674;9.018;2022-11-14T09:18:08;8.50;99.90
4556;DHT22;2290;48.674;9.018;2022-11-14T09:20:33;8.50;99.90
4556;DHT22;2290;48.674;9.018;2022-11-14T09:23:00;8.60;99.90
4556;DHT22;2290;48.674;9.018;2022-11-14T09:25:25;8.60;99.90
4556;DHT22;2290;48.674;9.018;2022-11-14T09:27:52;8.60;99.90
4556;DHT22;2290;48.674;9.018;2022-11-14T09:30:18;8.60;99.90
4556;DHT22;2290;48.674;9.018;2022-11-14T09:32:43;8.70;99.90
4556;DHT22;2290;48.674;9.018;2022-11-14T09:35:09;8.60;99.90
4556;DHT22;2290;48.674;9.018;2022-11-14T09:37:38;8.70;99.90
4556;DHT22;2290;48.674;9.018;2022-11-14T09:40:04;8.70;99.90
4556;DHT22;2290;48.674;9.018;2022-11-14T09:45:13;8.70;99.90
4556;DHT22;2290;48.674;9.018;2022-11-14T09:47:45;8.80;99.90
4556;DHT22;2290;48.674;9.018;2022-11-14T09:50:13;8.80;99.90
4556;DHT22;2290;48.674;9.018;2022-11-14T09:52:41;8.90;99.90
4556;DHT22;2290;48.674;9.018;2022-11-14T09:55:36;8.90;99.90
4556;DHT22;2290;48.674;9.018;2022-11-14T09:58:02;8.90;99.90
4556;DHT22;2290;48.674;9.018;2022-11-14T10:00:38;9.10;99.90
4556;DHT22;2290;48.674;9.018;2022-11-14T10:08:49;9.30;99.90
4556;DHT22;2290;48.674;9.018;2022-11-14T10:14:20;9.60;99.90
4556;DHT22;2290;48.674;9.018;2022-11-14T10:22:14;9.70;99.90
4556;DHT22;2290;48.674;9.018;2022-11-14T10:27:52;9.70;99.90
4556;DHT22;2290;48.674;9.018;2022-11-14T10:30:20;9.70;99.90
4556;DHT22;2290;48.674;9.018;2022-11-14T10:35:26;9.80;99.90
4556;DHT22;2290;48.674;9.018;2022-11-14T10:40:41;9.90;99.90
4556;DHT22;2290;48.674;9.018;2022-11-14T10:43:27;10.00;99.90
4556;DHT22;2290;48.674;9.018;2022-11-14T10:46:01;10.30;99.90
4556;DHT22;2290;48.674;9.018;2022-11-14T10:48:43;10.20;99.90
4556;DHT22;2290;48.674;9.018;2022-11-14T10:51:25;10.20;99.90
4556;DHT22;2290;48.674;9.018;2022-11-14T10:53:55;10.20;99.90
4556;DHT22;2290;48.674;9.018;2022-11-14T10:56:22;10.20;99.90
4556;DHT22;2290;48.674;9.018;2022-11-14T10:58:48;10.20;99.90
4556;DHT22;2290;48.674;9.018;2022-11-14T11:04:14;10.30;99.90
4556;DHT22;2290;48.674;9.018;2022-11-14T11:06:43;10.40;99.90
4556;DHT22;2290;48.674;9.018;2022-11-14T11:09:20;10.30;99.90
4556;DHT22;2290;48.674;9.018;2022-11-14T11:12:06;10.30;99.90
4556;DHT22;2290;48.674;9.018;2022-11-14T11:14:33;10.30;99.90
4556;DHT22;2290;48.674;9.018;2022-11-14T11:19:38;10.20;99.90
4556;DHT22;2290;48.674;9.018;2022-11-14T11:22:08;10.20;99.90
4556;DHT22;2290;48.674;9.018;2022-11-14T11:24:47;10.20;99.90
4556;DHT22;2290;48.674;9.018;2022-11-14T11:27:17;10.20;99.90
4556;DHT22;2290;48.674;9.018;2022-11-14T11:30:07;10.30;99.90
4556;DHT22;2290;48.674;9.018;2022-11-14T11:32:34;10.10;99.90
4556;DHT22;2290;48.674;9.018;2022-11-14T11:35:05;11.60;99.90
4556;DHT22;2290;48.674;9.018;2022-11-14T11:37:43;10.20;99.90
4556;DHT22;2290;48.674;9.018;2022-11-14T11:40:16;10.20;99.90
4556;DHT22;2290;48.674;9.018;2022-11-14T11:42:48;11.10;99.90
4556;DHT22;2290;48.674;9.018;2022-11-14T11:45:17;10.10;99.90
4556;DHT22;2290;48.674;9.018;2022-11-14T11:47:55;10.20;99.90
4556;DHT22;2290;48.674;9.018;2022-11-14T11:50:22;10.20;99.90
4556;DHT22;2290;48.674;9.018;2022-11-14T11:55:46;10.20;99.90
4556;DHT22;2290;48.674;9.018;2022-11-14T11:58:49;10.20;99.90
4556;DHT22;2290;48.674;9.018;2022-11-14T12:01:16;10.20;99.90
4556;DHT22;2290;48.674;9.018;2022-11-14T12:03:52;10.30;99.90
4556;DHT22;2290;48.674;9.018;2022-11-14T12:06:22;10.40;99.90
4556;DHT22;2290;48.674;9.018;2022-11-14T12:11:55;10.60;99.90
4556;DHT22;2290;48.674;9.018;2022-11-14T12:17:11;10.80;99.90
4556;DHT22;2290;48.674;9.018;2022-11-14T12:25:06;11.30;99.90
4556;DHT22;2290;48.674;9.018;2022-11-14T12:27:46;11.60;99.90
4556;DHT22;2290;48.674;9.018;2022-11-14T12:30:20;11.80;99.90
4556;DHT22;2290;48.674;9.018;2022-11-14T12:32:52;11.90;99.90
4556;DHT22;2290;48.674;9.018;2022-11-14T12:35:45;12.00;99.90
4556;DHT22;2290;48.674;9.018;2022-11-14T12:38:14;12.10;99.90
4556;DHT22;2290;48.674;9.018;2022-11-14T12:40:54;12.20;99.90
4556;DHT22;2290;48.674;9.018;2022-11-14T12:46:04;12.80;99.90
4556;DHT22;2290;48.674;9.018;2022-11-14T12:48:34;13.10;99.90
4556;DHT22;2290;48.674;9.018;2022-11-14T12:51:05;13.30;99.90
4556;DHT22;2290;48.674;9.018;2022-11-14T13:07:38;14.30;99.90
4556;DHT22;2290;48.674;9.018;2022-11-14T13:10:29;14.10;99.90
4556;DHT22;2290;48.674;9.018;2022-11-14T13:13:10;14.10;99.90
4556;DHT22;2290;48.674;9.018;2022-11-14T13:15:56;13.80;99.90
4556;DHT22;2290;48.674;9.018;2022-11-14T13:25:19;14.10;99.90
4556;DHT22;2290;48.674;9.018;2022-11-14T13:27:45;14.20;99.90
4556;DHT22;2290;48.674;9.018;2022-11-14T13:30:11;14.10;99.90
4556;DHT22;2290;48.674;9.018;2022-11-14T13:35:22;14.20;99.90
4556;DHT22;2290;48.674;9.018;2022-11-14T13:38:26;14.30;99.90
4556;DHT22;2290;48.674;9.018;2022-11-14T13:41:25;14.40;99.90
4556;DHT22;2290;48.674;9.018;2022-11-14T13:52:27;15.00;99.90
4556;DHT22;2290;48.674;9.018;2022-11-14T13:54:54;15.60;99.90
4556;DHT22;2290;48.674;9.018;2022-11-14T14:00:17;16.80;99.90
4556;DHT22;2290;48.674;9.018;2022-11-14T14:03:14;17.70;99.90
4556;DHT22;2290;48.674;9.018;2022-11-14T14:06:00;18.40;99.90
4556;DHT22;2290;48.674;9.018;2022-11-14T14:13:59;17.40;99.90
4556;DHT22;2290;48.674;9.018;2022-11-14T14:30:23;14.70;99.90
4556;DHT22;2290;48.674;9.018;2022-11-14T14:33:15;15.50;99.90
4556;DHT22;2290;48.674;9.018;2022-11-14T14:35:51;17.00;99.90
4556;DHT22;2290;48.674;9.018;2022-11-14T14:38:25;16.80;99.90
4556;DHT22;2290;48.674;9.018;2022-11-14T14:40:53;16.00;99.90
4556;DHT22;2290;48.674;9.018;2022-11-14T14:43:31;15.00;99.90
4556;DHT22;2290;48.674;9.018;2022-11-14T14:45:58;14.50;99.90
4556;DHT22;2290;48.674;9.018;2022-11-14T14:48:27;14.10;99.90
4556;DHT22;2290;48.674;9.018;2022-11-14T14:50:58;13.80;99.90
4556;DHT22;2290;48.674;9.018;2022-11-14T14:53:27;13.50;99.90
4556;DHT22;2290;48.674;9.018;2022-11-14T14:55:59;13.20;99.90
4556;DHT22;2290;48.674;9.018;2022-11-14T14:58:27;13.00;99.90
4556;DHT22;2290;48.674;9.018;2022-11-14T15:01:03;12.80;99.90
4556;DHT22;2290;48.674;9.018;2022-11-14T15:03:44;13.40;99.90
4556;DHT22;2290;48.674;9.018;2022-11-14T15:09:02;15.90;99.90
4556;DHT22;2290;48.674;9.018;2022-11-14T15:11:33;16.00;99.90
4556;DHT22;2290;48.674;9.018;2022-11-14T15:14:02;15.50;99.90
4556;DHT22;2290;48.674;9.018;2022-11-14T15:16:28;15.30;99.90
4556;DHT22;2290;48.674;9.018;2022-11-14T15:18:55;14.70;99.90
4556;DHT22;2290;48.674;9.018;2022-11-14T15:21:28;14.40;99.90
4556;DHT22;2290;48.674;9.018;2022-11-14T15:24:01;13.70;99.90
4556;DHT22;2290;48.674;9.018;2022-11-14T15:26:28;13.40;99.90
4556;DHT22;2290;48.674;9.018;2022-11-14T15:29:25;12.90;99.90
4556;DHT22;2290;48.674;9.018;2022-11-14T15:31:57;12.50;99.90
4556;DHT22;2290;48.674;9.018;2022-11-14T15:34:30;12.30;99.90
4556;DHT22;2290;48.674;9.018;2022-11-14T15:39:41;11.90;99.90
4556;DHT22;2290;48.674;9.018;2022-11-14T15:44:49;11.70;99.90
4556;DHT22;2290;48.674;9.018;2022-11-14T15:55:18;11.50;99.90
4556;DHT22;2290;48.674;9.018;2022-11-14T15:57:46;11.40;99.90
4556;DHT22;2290;48.674;9.018;2022-11-14T16:00:13;11.30;99.90
4556;DHT22;2290;48.674;9.018;2022-11-14T16:02:49;11.20;99.90
4556;DHT22;2290;48.674;9.018;2022-11-14T16:05:18;11.20;99.90
4556;DHT22;2290;48.674;9.018;2022-11-14T16:07:44;11.10;99.90
4556;DHT22;2290;48.674;9.018;2022-11-14T16:10:18;11.10;99.90
4556;DHT22;2290;48.674;9.018;2022-11-14T16:12:44;11.00;99.90
4556;DHT22;2290;48.674;9.018;2022-11-14T16:15:10;11.00;99.90
4556;DHT22;2290;48.674;9.018;2022-11-14T16:17:42;11.00;99.90
4556;DHT22;2290;48.674;9.018;2022-11-14T16:20:14;11.00;99.90
4556;DHT22;2290;48.674;9.018;2022-11-14T16:22:41;11.00;99.90
4556;DHT22;2290;48.674;9.018;2022-11-14T16:25:15;10.90;99.90
4556;DHT22;2290;48.674;9.018;2022-11-14T16:27:43;10.90;99.90
4556;DHT22;2290;48.674;9.018;2022-11-14T16:30:13;10.80;99.90
4556;DHT22;2290;48.674;9.018;2022-11-14T16:32:39;10.80;99.90
4556;DHT22;2290;48.674;9.018;2022-11-14T16:35:26;10.80;99.90
4556;DHT22;2290;48.674;9.018;2022-11-14T16:37:54;10.80;99.90
4556;DHT22;2290;48.674;9.018;2022-11-14T16:40:22;10.70;99.90
4556;DHT22;2290;48.674;9.018;2022-11-14T16:42:48;10.70;99.90
4556;DHT22;2290;48.674;9.018;2022-11-14T16:45:15;10.60;99.90
4556;DHT22;2290;48.674;9.018;2022-11-14T16:47:41;10.60;99.90
4556;DHT22;2290;48.674;9.018;2022-11-14T16:50:07;10.60;99.90
4556;DHT22;2290;48.674;9.018;2022-11-14T16:52:33;10.60;99.90
4556;DHT22;2290;48.674;9.018;2022-11-14T16:54:59;10.70;99.90
4556;DHT22;2290;48.674;9.018;2022-11-14T16:57:25;10.60;99.90
4556;DHT22;2290;48.674;9.018;2022-11-14T16:59:50;10.70;99.90
4556;DHT22;2290;48.674;9.018;2022-11-14T17:02:16;10.60;99.90
4556;DHT22;2290;48.674;9.018;2022-11-14T17:04:43;10.60;99.90
4556;DHT22;2290;48.674;9.018;2022-11-14T17:07:10;10.60;99.90
4556;DHT22;2290;48.674;9.018;2022-11-14T17:09:35;10.60;99.90
4556;DHT22;2290;48.674;9.018;2022-11-14T17:12:01;10.60;99.90
4556;DHT22;2290;48.674;9.018;2022-11-14T17:14:27;10.60;99.90
4556;DHT22;2290;48.674;9.018;2022-11-14T17:16:54;12.00;99.90
4556;DHT22;2290;48.674;9.018;2022-11-14T17:19:20;10.50;99.90
4556;DHT22;2290;48.674;9.018;2022-11-14T17:21:45;10.80;99.90
4556;DHT22;2290;48.674;9.018;2022-11-14T17:24:11;10.60;99.90
4556;DHT22;2290;48.674;9.018;2022-11-14T17:26:37;10.90;99.90
4556;DHT22;2290;48.674;9.018;2022-11-14T17:29:03;10.60;99.90
4556;DHT22;2290;48.674;9.018;2022-11-14T17:31:30;10.50;99.90
4556;DHT22;2290;48.674;9.018;2022-11-14T17:36:31;10.50;99.90
4556;DHT22;2290;48.674;9.018;2022-11-14T17:44:01;10.50;99.90
4556;DHT22;2290;48.674;9.018;2022-11-14T17:46:28;10.50;99.90
4556;DHT22;2290;48.674;9.018;2022-11-14T17:51:20;10.50;99.90
4556;DHT22;2290;48.674;9.018;2022-11-14T18:38:43;10.60;99.90
4556;DHT22;2290;48.674;9.018;2022-11-14T19:32:52;10.90;99.90
4556;DHT22;2290;48.674;9.018;2022-11-14T19:40:10;11.00;99.90
4556;DHT22;2290;48.674;9.018;2022-11-14T20:31:28;10.80;99.90
4556;DHT22;2290;48.674;9.018;2022-11-14T20:36:22;10.80;99.90
4556;DHT22;2290;48.674;9.018;2022-11-14T20:46:18;10.70;99.90
4556;DHT22;2290;48.674;9.018;2022-11-14T20:51:21;10.70;99.90
4556;DHT22;2290;48.674;9.018;2022-11-14T20:53:49;10.70;99.90
4556;DHT22;2290;48.674;9.018;2022-11-14T20:56:15;10.70;99.90
4556;DHT22;2290;48.674;9.018;2022-11-14T20:58:43;10.70;99.90
4556;DHT22;2290;48.674;9.018;2022-11-14T21:01:10;10.70;99.90
4556;DHT22;2290;48.674;9.018;2022-11-14T21:03:36;10.70;99.90
4556;DHT22;2290;48.674;9.018;2022-11-14T21:06:02;10.60;99.90
4556;DHT22;2290;48.674;9.018;2022-11-14T21:10:59;10.60;99.90
4556;DHT22;2290;48.674;9.018;2022-11-14T21:16:14;10.60;99.90
4556;DHT22;2290;48.674;9.018;2022-11-14T21:18:41;10.50;99.90
4556;DHT22;2290;48.674;9.018;2022-11-14T21:21:15;11.50;99.90
4556;DHT22;2290;48.674;9.018;2022-11-14T21:23:42;10.50;99.90
4556;DHT22;2290;48.674;9.018;2022-11-14T21:26:14;10.50;99.90
4556;DHT22;2290;48.674;9.018;2022-11-14T21:28:43;10.40;99.90
4556;DHT22;2290;48.674;9.018;2022-11-14T21:31:26;10.30;99.90
4556;DHT22;2290;48.674;9.018;2022-11-14T21:33:55;10.30;99.90
4556;DHT22;2290;48.674;9.018;2022-11-14T21:36:21;10.20;99.90
4556;DHT22;2290;48.674;9.018;2022-11-14T21:38:47;10.10;99.90
4556;DHT22;2290;48.674;9.018;2022-11-14T21:41:15;10.10;99.90
4556;DHT22;2290;48.674;9.018;2022-11-14T21:43:42;10.00;99.90
4556;DHT22;2290;48.674;9.018;2022-11-14T21:46:08;10.00;99.90
4556;DHT22;2290;48.674;9.018;2022-11-14T21:48:36;9.70;99.90
4556;DHT22;2290;48.674;9.018;2022-11-14T21:51:08;9.60;99.90
4556;DHT22;2290;48.674;9.018;2022-11-14T21:53:35;9.50;99.90
4556;DHT22;2290;48.674;9.018;2022-11-14T21:58:39;9.40;99.90
4556;DHT22;2290;48.674;9.018;2022-11-14T22:01:10;9.30;99.90
4556;DHT22;2290;48.674;9.018;2022-11-14T22:03:38;9.20;99.90
4556;DHT22;2290;48.674;9.018;2022-11-14T22:06:23;9.20;99.90
4556;DHT22;2290;48.674;9.018;2022-11-14T22:08:52;9.10;99.90
4556;DHT22;2290;48.674;9.018;2022-11-14T22:13:54;8.90;99.90
4556;DHT22;2290;48.674;9.018;2022-11-14T22:16:20;8.80;99.90
4556;DHT22;2290;48.674;9.018;2022-11-14T22:18:46;8.80;99.90
4556;DHT22;2290;48.674;9.018;2022-11-14T22:21:12;8.70;99.90
4556;DHT22;2290;48.674;9.018;2022-11-14T22:23:38;8.80;99.90
4556;DHT22;2290;48.674;9.018;2022-11-14T22:26:04;8.90;99.90
4556;DHT22;2290;48.674;9.018;2022-11-14T22:28:30;8.90;99.90
4556;DHT22;2290;48.674;9.018;2022-11-14T22:33:39;8.90;99.90
4556;DHT22;2290;48.674;9.018;2022-11-14T22:38:34;9.00;99.90
4556;DHT22;2290;48.674;9.018;2022-11-14T22:41:01;9.00;99.90